SPLO

Ilo Airport

Ilo, Peru
SPLO 181700Z 1818/1918 14010KT CAVOK TX26/1819Z TN18/1911Z FM190200 18007KT 9999 BKN040
Issued Valid From Valid To
Dec-18 @ 17:00 UTC
(6 hours ago)
Dec-18 @ 18:00 UTC
(5 hours ago)
Dec-19 @ 18:00 UTC
(in 19 hours)
Dec-18 @ 18:00 to Dec-19 @ 02:00
SPLO 181700Z 1818/1918 14010KT CAVOK TX26/1819Z TN18/1911Z
Wind Visibility Clouds
140° at 10 knots 10,000+ meters
  • No significant clouds
From Dec-19 @ 02:00 to Dec-19 @ 18:00
FM190200 18007KT 9999 BKN040
Wind Visibility Clouds
180° at 7 knots 10,000+ meters
  • Broken at 4,000' AGL
SPLO 181700Z 1818/1918 14010KT CAVOK TX26/1819Z TN18/1911Z FM190200 18007KT 9999 BKN040
Issued Dec-18 @ 17:00 UTC
(6 hours ago)
Valid From Dec-18 @ 18:00 UTC
(5 hours ago)
Valid To Dec-19 @ 18:00 UTC
(in 19 hours)
Dec-18 @ 18:00 - Dec-19 @ 02:00
Wind Visibility
140° at 10 knots 10,000+ meters
Clouds
  • No significant clouds
From Dec-19 @ 02:00 - Dec-19 @ 18:00
Wind Visibility
180° at 7 knots 10,000+ meters
Clouds
  • Broken at 4,000' AGL